createdAt,value
2018-11-26T00:02:11.866Z,29.83
2018-11-26T00:04:40.304Z,27.67
2018-11-26T00:07:08.758Z,28.53
2018-11-26T00:09:37.215Z,30.10
2018-11-26T00:12:05.672Z,28.63
2018-11-26T00:14:34.136Z,29.93
2018-11-26T00:17:02.573Z,28.00
2018-11-26T00:19:31.023Z,30.03
2018-11-26T00:21:59.500Z,28.20
2018-11-26T00:24:27.956Z,29.17
2018-11-26T00:26:56.518Z,29.37
2018-11-26T00:29:24.951Z,29.70
2018-11-26T00:31:53.454Z,26.73
2018-11-26T00:34:21.937Z,27.83
2018-11-26T00:36:50.388Z,29.03
2018-11-26T00:39:18.854Z,29.10
2018-11-26T00:41:47.317Z,28.43
2018-11-26T00:44:15.761Z,27.93
2018-11-26T00:46:44.206Z,28.63
2018-11-26T00:49:12.648Z,27.37
2018-11-26T00:51:41.084Z,26.53
2018-11-26T00:54:09.506Z,27.33
2018-11-26T00:56:37.998Z,28.80
2018-11-26T00:59:06.446Z,27.37
2018-11-26T01:01:34.966Z,26.73
2018-11-26T01:04:03.401Z,26.87
2018-11-26T01:06:31.859Z,26.67
2018-11-26T01:09:00.323Z,26.83
2018-11-26T01:11:28.769Z,27.57
2018-11-26T01:13:57.209Z,25.90
2018-11-26T01:16:25.681Z,26.63
2018-11-26T01:18:54.138Z,28.27
2018-11-26T01:21:22.615Z,25.63
2018-11-26T01:23:51.060Z,24.80
2018-11-26T01:26:19.492Z,26.27
2018-11-26T01:28:47.921Z,26.80
2018-11-26T01:31:16.360Z,25.50
2018-11-26T01:33:44.800Z,24.40
2018-11-26T01:36:13.248Z,25.13
2018-11-26T01:38:41.697Z,26.00
2018-11-26T01:41:10.141Z,26.80
2018-11-26T01:43:38.685Z,25.03
2018-11-26T01:46:07.137Z,24.63
2018-11-26T01:48:35.575Z,25.13
2018-11-26T01:51:04.022Z,25.60
2018-11-26T01:53:32.462Z,26.47
2018-11-26T01:56:00.921Z,25.90
2018-11-26T01:58:29.353Z,25.23
2018-11-26T02:00:57.782Z,24.77
2018-11-26T02:03:26.247Z,25.40
2018-11-26T02:05:54.753Z,26.10
2018-11-26T02:08:23.180Z,27.23
2018-11-26T02:10:52.966Z,25.83
2018-11-26T02:13:21.410Z,25.10
2018-11-26T02:15:49.845Z,24.40
2018-11-26T02:18:18.289Z,24.57
2018-11-26T02:20:46.717Z,25.37
2018-11-26T02:23:15.144Z,25.03
2018-11-26T02:25:43.600Z,26.80
2018-11-26T02:28:12.055Z,24.53
2018-11-26T02:30:40.512Z,24.73
2018-11-26T02:33:08.941Z,24.87
2018-11-26T02:35:37.392Z,23.57
2018-11-26T02:38:05.906Z,23.63
2018-11-26T02:40:34.341Z,24.93
2018-11-26T02:43:02.773Z,24.37
2018-11-26T02:45:31.273Z,24.23
2018-11-26T02:47:59.716Z,23.00
2018-11-26T02:50:28.138Z,24.50
2018-11-26T02:52:56.581Z,24.07
2018-11-26T02:55:25.009Z,23.43
2018-11-26T02:57:53.478Z,23.43
2018-11-26T03:00:21.935Z,24.03
2018-11-26T03:02:50.373Z,23.57
2018-11-26T03:05:24.770Z,23.17
2018-11-26T03:07:53.409Z,22.60
2018-11-26T03:10:22.081Z,22.83
2018-11-26T03:12:50.731Z,24.03
2018-11-26T03:15:19.278Z,24.70
2018-11-26T03:17:47.729Z,23.60
2018-11-26T03:20:16.181Z,21.97
2018-11-26T03:22:44.712Z,23.90
2018-11-26T03:25:13.157Z,22.57
2018-11-26T03:27:41.609Z,24.13
2018-11-26T03:30:13.748Z,23.93
2018-11-26T03:32:42.213Z,22.83
2018-11-26T03:35:10.931Z,22.40
2018-11-26T03:37:39.460Z,24.43
2018-11-26T03:40:10.288Z,25.60
2018-11-26T03:42:38.729Z,24.50
2018-11-26T03:45:36.838Z,23.37
2018-11-26T03:48:06.145Z,23.50
2018-11-26T03:50:34.615Z,23.33
2018-11-26T03:53:03.090Z,23.30
2018-11-26T03:55:31.538Z,23.17
2018-11-26T03:57:59.964Z,24.53
2018-11-26T04:00:28.402Z,25.07
2018-11-26T04:02:56.871Z,23.13
2018-11-26T04:05:25.325Z,23.50
2018-11-26T04:07:53.769Z,23.00
2018-11-26T04:10:22.230Z,25.77
2018-11-26T04:12:50.645Z,22.93
2018-11-26T04:15:19.105Z,24.77
2018-11-26T04:17:47.530Z,23.67
2018-11-26T04:20:15.952Z,24.77
2018-11-26T04:22:44.391Z,25.43
2018-11-26T04:25:12.835Z,22.83
2018-11-26T04:27:41.355Z,24.63
2018-11-26T04:30:11.145Z,23.87
2018-11-26T04:32:40.001Z,25.73
2018-11-26T04:35:08.424Z,25.13
2018-11-26T04:37:36.862Z,25.33
2018-11-26T04:40:07.422Z,24.73
2018-11-26T04:42:35.850Z,23.53
2018-11-26T04:45:04.325Z,27.60
2018-11-26T04:47:32.766Z,24.80
2018-11-26T04:50:01.197Z,24.03
2018-11-26T04:52:29.611Z,25.13
2018-11-26T04:54:58.054Z,23.70
2018-11-26T04:57:26.515Z,25.20
2018-11-26T04:59:54.949Z,24.43
2018-11-26T05:02:23.389Z,23.63
2018-11-26T05:04:51.824Z,23.83
2018-11-26T05:07:20.254Z,24.53
2018-11-26T05:09:48.733Z,23.57
2018-11-26T05:12:17.161Z,25.17
2018-11-26T05:14:45.609Z,25.00
2018-11-26T05:17:14.057Z,25.60
2018-11-26T05:19:42.497Z,23.93
2018-11-26T05:22:10.954Z,23.50
2018-11-26T05:24:39.368Z,26.73
2018-11-26T05:27:07.808Z,24.80
2018-11-26T05:29:36.234Z,23.67
2018-11-26T05:32:05.517Z,31.65
2018-11-26T05:34:33.987Z,26.63
2018-11-26T05:37:02.486Z,25.00
2018-11-26T05:39:30.933Z,23.97
2018-11-26T05:41:59.363Z,25.33
2018-11-26T05:44:27.813Z,23.87
2018-11-26T05:46:56.294Z,24.07
2018-11-26T05:49:24.862Z,25.03
2018-11-26T05:51:53.301Z,26.53
2018-11-26T05:54:21.728Z,24.07
2018-11-26T05:56:50.158Z,24.87
2018-11-26T05:59:18.607Z,25.17
2018-11-26T06:01:47.052Z,25.50
2018-11-26T06:04:15.494Z,23.90
2018-11-26T06:06:43.925Z,25.50
2018-11-26T06:09:12.368Z,25.30
2018-11-26T06:11:41.134Z,23.87
2018-11-26T06:14:09.573Z,23.73
2018-11-26T06:16:38.020Z,23.77
2018-11-26T06:19:06.948Z,24.63
2018-11-26T06:21:35.537Z,22.80
2018-11-26T06:24:04.019Z,25.53
2018-11-26T06:26:32.465Z,25.63
2018-11-26T06:29:00.914Z,25.93
2018-11-26T06:31:29.344Z,24.90
2018-11-26T06:33:57.822Z,23.43
2018-11-26T06:36:26.270Z,25.07
2018-11-26T06:38:55.045Z,25.50
2018-11-26T06:41:23.509Z,23.63
2018-11-26T06:44:55.254Z,23.23
2018-11-26T06:47:23.697Z,24.57
2018-11-26T06:49:52.129Z,24.87
2018-11-26T06:52:20.550Z,23.90
2018-11-26T06:54:48.997Z,24.10
2018-11-26T06:57:17.440Z,21.90
2018-11-26T06:59:45.933Z,24.63
2018-11-26T07:02:14.466Z,24.83
2018-11-26T07:04:42.898Z,25.27
2018-11-26T07:07:11.335Z,24.97
2018-11-26T07:09:39.857Z,23.40
2018-11-26T07:12:08.296Z,23.17
2018-11-26T07:14:36.741Z,23.53
2018-11-26T07:17:05.649Z,23.47
2018-11-26T07:19:34.125Z,23.90
2018-11-26T07:22:02.554Z,22.80
2018-11-26T07:24:30.988Z,23.10
2018-11-26T07:26:59.448Z,24.80
2018-11-26T07:29:27.911Z,23.13
2018-11-26T07:31:56.449Z,23.60
2018-11-26T07:34:24.882Z,24.10
2018-11-26T07:36:53.337Z,24.07
2018-11-26T07:39:21.761Z,23.17
2018-11-26T07:41:50.196Z,22.70
2018-11-26T07:44:18.686Z,24.50
2018-11-26T07:46:47.117Z,25.03
2018-11-26T07:49:15.558Z,23.13
2018-11-26T07:51:43.997Z,23.00
2018-11-26T07:54:12.440Z,25.00
2018-11-26T07:56:40.904Z,24.63
2018-11-26T07:59:09.359Z,24.30
2018-11-26T08:01:37.821Z,23.73
2018-11-26T08:04:06.388Z,23.53
2018-11-26T08:06:34.900Z,24.30
2018-11-26T08:09:03.512Z,23.10
2018-11-26T08:11:31.953Z,24.53
2018-11-26T08:14:00.733Z,23.97
2018-11-26T08:16:29.173Z,23.47
2018-11-26T08:18:57.607Z,24.13
2018-11-26T08:21:26.117Z,22.33
2018-11-26T08:23:54.654Z,22.27
2018-11-26T08:26:23.101Z,24.13
2018-11-26T08:28:51.542Z,23.23
2018-11-26T08:31:19.970Z,23.53
2018-11-26T08:33:48.434Z,23.10
2018-11-26T08:36:21.091Z,24.97
2018-11-26T08:38:54.953Z,22.17
2018-11-26T08:41:27.625Z,23.30
2018-11-26T08:43:58.019Z,23.97
2018-11-26T08:46:32.478Z,25.07
2018-11-26T08:49:07.117Z,23.83
2018-11-26T08:51:35.924Z,24.33
2018-11-26T08:54:04.385Z,23.37
2018-11-26T08:56:32.957Z,25.37
2018-11-26T08:59:01.393Z,25.57
2018-11-26T09:01:34.834Z,25.80
2018-11-26T09:13:54.862Z,25.07
2018-11-26T09:16:23.299Z,25.57
2018-11-26T09:18:52.027Z,26.17
2018-11-26T09:21:20.505Z,25.77
2018-11-26T09:23:48.972Z,25.90
2018-11-26T09:26:17.417Z,25.60
2018-11-26T09:28:46.083Z,24.77
2018-11-26T09:31:14.536Z,26.00
2018-11-26T09:33:43.000Z,26.37
2018-11-26T09:36:11.447Z,25.53
2018-11-26T09:38:39.922Z,26.20
2018-11-26T09:41:08.388Z,27.17
2018-11-26T09:43:37.045Z,26.50
2018-11-26T09:46:06.141Z,25.30
2018-11-26T09:48:34.633Z,27.47
2018-11-26T09:51:03.160Z,27.13
2018-11-26T09:53:31.668Z,26.73
2018-11-26T09:56:00.313Z,25.53
2018-11-26T09:58:28.753Z,27.40
2018-11-26T10:00:57.191Z,26.53
2018-11-26T10:03:25.646Z,24.80
2018-11-26T10:05:54.101Z,25.17
2018-11-26T10:08:22.578Z,25.80
2018-11-26T10:10:51.143Z,26.03
2018-11-26T10:13:19.601Z,27.27
2018-11-26T10:15:48.225Z,24.97
2018-11-26T10:18:16.690Z,26.73
2018-11-26T10:20:45.171Z,25.33
2018-11-26T10:23:13.604Z,26.67
2018-11-26T10:25:42.046Z,26.20
2018-11-26T10:28:10.493Z,25.50
2018-11-26T10:30:38.953Z,26.73
2018-11-26T10:33:14.441Z,25.63
2018-11-26T10:35:35.950Z,25.27
2018-11-26T10:38:04.402Z,25.60
2018-11-26T10:40:32.843Z,27.37
2018-11-26T10:43:01.272Z,26.03
2018-11-26T10:45:29.718Z,25.90
2018-11-26T10:47:58.209Z,25.93
2018-11-26T10:50:27.129Z,24.17
2018-11-26T10:52:57.822Z,24.70
2018-11-26T10:55:29.633Z,24.23
2018-11-26T10:57:58.063Z,23.60
2018-11-26T11:03:13.061Z,24.00
2018-11-26T11:05:41.531Z,24.03
2018-11-26T11:08:10.021Z,23.07
2018-11-26T11:10:38.500Z,23.63
2018-11-26T11:13:07.602Z,23.03
2018-11-26T11:15:36.653Z,23.17
2018-11-26T11:18:06.243Z,22.37
2018-11-26T11:20:35.239Z,24.07
2018-11-26T11:23:03.682Z,24.33
2018-11-26T11:25:32.122Z,22.67
2018-11-26T11:28:00.615Z,23.00
2018-11-26T11:30:30.157Z,23.17
2018-11-26T11:32:58.624Z,23.00
2018-11-26T11:35:27.054Z,23.37
2018-11-26T11:37:55.788Z,24.27
2018-11-26T11:40:26.236Z,21.90
2018-11-26T11:42:54.790Z,23.50
2018-11-26T11:45:23.665Z,22.40
2018-11-26T11:47:52.131Z,23.33
2018-11-26T11:50:21.161Z,24.17
2018-11-26T11:52:49.975Z,21.50
2018-11-26T11:55:20.445Z,20.97
2018-11-26T11:57:48.905Z,20.83
2018-11-26T12:00:27.031Z,22.37
2018-11-26T12:02:55.484Z,23.33
2018-11-26T12:05:24.062Z,21.23
2018-11-26T12:07:52.515Z,22.40
2018-11-26T12:10:21.029Z,22.40
2018-11-26T12:12:49.572Z,21.10
2018-11-26T12:15:18.135Z,20.97
2018-11-26T12:17:47.529Z,21.70
2018-11-26T12:20:16.190Z,21.53
2018-11-26T12:22:44.918Z,23.50
2018-11-26T12:25:17.497Z,21.53
2018-11-26T12:27:45.929Z,20.93
2018-11-26T12:30:18.346Z,20.77
2018-11-26T12:32:46.798Z,20.80
2018-11-26T12:35:15.223Z,21.43
2018-11-26T12:37:43.741Z,21.07
2018-11-26T12:40:14.488Z,20.60
2018-11-26T12:42:42.947Z,20.87
2018-11-26T12:45:13.191Z,21.53
2018-11-26T12:47:41.671Z,21.57
2018-11-26T12:50:10.130Z,22.37
2018-11-26T12:52:38.821Z,21.10
2018-11-26T12:55:10.481Z,21.03
2018-11-26T12:57:39.684Z,20.83
2018-11-26T13:00:18.465Z,20.67
2018-11-26T13:02:49.152Z,21.67
2018-11-26T13:05:18.803Z,20.10
2018-11-26T13:07:47.250Z,19.40
2018-11-26T13:10:16.771Z,20.00
2018-11-26T13:12:45.680Z,19.70
2018-11-26T13:15:20.072Z,22.13
2018-11-26T13:17:48.582Z,20.33
2018-11-26T13:20:20.289Z,21.53
2018-11-26T13:22:49.123Z,19.97
2018-11-26T13:25:18.825Z,20.20
2018-11-26T13:27:50.433Z,20.13
2018-11-26T13:30:22.947Z,19.47
2018-11-26T13:32:53.038Z,19.87
2018-11-26T13:35:21.494Z,20.33
2018-11-26T13:37:49.929Z,19.53
2018-11-26T13:40:19.234Z,20.50
2018-11-26T13:42:47.745Z,19.00
2018-11-26T13:45:52.759Z,19.63
2018-11-26T13:48:21.212Z,20.20
2018-11-26T13:50:52.171Z,20.93
2018-11-26T13:53:20.650Z,19.20
2018-11-26T13:55:49.410Z,20.03
2018-11-26T13:58:17.867Z,21.30
2018-11-26T14:00:46.334Z,19.80
2018-11-26T14:03:14.824Z,19.53
2018-11-26T14:05:43.304Z,20.90
2018-11-26T14:08:11.882Z,19.93
2018-11-26T14:10:40.362Z,20.27
2018-11-26T14:13:14.947Z,20.53
2018-11-26T14:15:43.394Z,19.87
2018-11-26T14:18:11.863Z,20.77
2018-11-26T14:20:40.356Z,19.87
2018-11-26T14:23:09.095Z,20.13
2018-11-26T14:25:37.897Z,19.83
2018-11-26T14:28:06.400Z,19.97
2018-11-26T14:30:34.950Z,19.67
2018-11-26T14:33:03.464Z,18.87
2018-11-26T14:35:31.929Z,21.67
2018-11-26T14:38:02.401Z,21.90
2018-11-26T14:40:34.343Z,21.47
2018-11-26T14:43:02.881Z,21.37
2018-11-26T14:45:31.460Z,23.03
2018-11-26T14:47:59.967Z,22.37
2018-11-26T14:50:28.465Z,23.93
2018-11-26T14:52:56.976Z,24.10
2018-11-26T14:55:29.797Z,23.20
2018-11-26T14:57:58.459Z,24.03
2018-11-26T15:00:26.925Z,24.50
2018-11-26T15:02:55.604Z,21.80
2018-11-26T15:05:24.079Z,24.73
2018-11-26T15:07:52.533Z,24.67
2018-11-26T15:10:23.488Z,23.67
2018-11-26T15:12:52.201Z,23.90
2018-11-26T15:15:22.676Z,22.13
2018-11-26T15:17:51.310Z,24.63
2018-11-26T15:20:20.948Z,23.33
2018-11-26T15:22:49.910Z,23.47
2018-11-26T15:25:21.219Z,23.13
2018-11-26T15:27:50.320Z,24.12
2018-11-26T15:30:20.103Z,24.57
2018-11-26T15:32:48.874Z,22.83
2018-11-26T15:35:19.384Z,23.37
2018-11-26T15:37:47.864Z,24.80
2018-11-26T15:40:17.592Z,23.73
2018-11-26T15:42:46.279Z,24.50
2018-11-26T15:45:20.894Z,22.97
2018-11-26T15:47:50.286Z,24.80
2018-11-26T15:50:18.851Z,24.53
2018-11-26T15:52:47.650Z,22.57
2018-11-26T15:55:17.606Z,23.60
2018-11-26T15:57:46.142Z,24.03
2018-11-26T16:00:15.818Z,23.50
2018-11-26T16:02:44.416Z,25.20
2018-11-26T16:05:15.120Z,24.63
2018-11-26T16:07:43.702Z,23.23
2018-11-26T16:10:13.353Z,24.70
2018-11-26T16:12:42.355Z,25.87
2018-11-26T16:15:14.955Z,25.33
2018-11-26T16:17:43.399Z,25.03
2018-11-26T16:20:14.446Z,25.27
2018-11-26T16:22:42.924Z,25.43
2018-11-26T16:25:12.826Z,25.23
2018-11-26T16:27:41.313Z,23.47
2018-11-26T16:30:13.961Z,24.40
2018-11-26T16:32:43.792Z,24.53
2018-11-26T16:35:15.663Z,24.30
2018-11-26T16:37:44.170Z,24.70
2018-11-26T16:40:13.939Z,24.00
2018-11-26T16:42:42.439Z,22.83
2018-11-26T16:45:12.685Z,23.53
2018-11-26T16:47:41.168Z,22.30
2018-11-26T16:50:11.147Z,21.83
2018-11-26T16:52:39.698Z,22.00
2018-11-26T16:55:10.677Z,21.97
2018-11-26T16:57:39.303Z,22.03
2018-11-26T17:00:17.082Z,22.40
2018-11-26T17:02:46.457Z,20.70
2018-11-26T17:05:16.374Z,20.97
2018-11-26T17:07:44.821Z,20.87
2018-11-26T17:10:13.268Z,21.87
2018-11-26T17:12:41.874Z,21.23
2018-11-26T17:15:15.634Z,20.63
2018-11-26T17:17:44.141Z,20.63
2018-11-26T17:20:13.628Z,19.67
2018-11-26T17:22:42.607Z,20.27
2018-11-26T17:25:12.314Z,20.37
2018-11-26T17:27:41.351Z,19.97
2018-11-26T17:30:13.143Z,21.87
2018-11-26T17:32:41.718Z,21.13
2018-11-26T17:35:11.633Z,20.63
2018-11-26T17:37:42.758Z,20.63
2018-11-26T17:40:10.354Z,19.90
2018-11-26T17:42:38.774Z,19.97
2018-11-26T17:45:09.378Z,19.73
2018-11-26T17:47:37.823Z,19.40
2018-11-26T17:50:10.464Z,21.70
2018-11-26T17:52:38.938Z,21.23
2018-11-26T17:55:08.292Z,20.83
2018-11-26T17:57:36.825Z,20.50
2018-11-26T18:00:11.821Z,21.07
2018-11-26T18:02:40.717Z,20.13
2018-11-26T18:05:14.098Z,20.80
2018-11-26T18:07:42.607Z,22.37
2018-11-26T18:10:13.450Z,20.20
2018-11-26T18:12:41.957Z,21.43
2018-11-26T18:15:11.999Z,20.63
2018-11-26T18:20:19.024Z,19.77
2018-11-26T18:22:49.111Z,21.00
2018-11-26T18:25:18.338Z,21.27
2018-11-26T18:27:59.068Z,22.07
2018-11-26T18:30:32.616Z,21.17
2018-11-26T18:33:01.534Z,19.97
2018-11-26T18:35:30.153Z,21.00
2018-11-26T18:37:58.771Z,21.73
2018-11-26T18:40:27.261Z,20.77
2018-11-26T18:42:55.864Z,19.73
2018-11-26T18:45:24.478Z,21.40
2018-11-26T18:47:53.224Z,20.67
2018-11-26T18:50:22.110Z,21.63
2018-11-26T18:52:51.234Z,21.10
2018-11-26T18:55:20.239Z,22.30
2018-11-26T18:57:48.689Z,20.33
2018-11-26T19:00:24.704Z,22.13
2018-11-26T19:02:54.300Z,21.77
2018-11-26T19:05:22.843Z,21.17
2018-11-26T19:07:51.297Z,20.63
2018-11-26T19:10:21.113Z,20.67
2018-11-26T19:12:58.953Z,21.63
2018-11-26T19:15:39.045Z,22.00
2018-11-26T19:18:14.866Z,20.80
2018-11-26T19:20:43.503Z,22.10
2018-11-26T19:23:11.979Z,21.80
2018-11-26T19:25:40.711Z,22.00
2018-11-26T19:28:10.619Z,21.20
2018-11-26T19:30:39.505Z,23.00
2018-11-26T19:33:09.208Z,21.73
2018-11-26T19:35:37.766Z,21.90
2018-11-26T19:38:07.380Z,21.70
2018-11-26T19:40:36.944Z,21.47
2018-11-26T19:43:05.576Z,21.90
2018-11-26T19:45:34.062Z,21.27
2018-11-26T19:48:02.533Z,22.20
2018-11-26T19:50:31.002Z,23.30
2018-11-26T19:52:59.472Z,23.27
2018-11-26T19:55:28.055Z,21.93
2018-11-26T19:57:57.986Z,23.47
2018-11-26T20:00:29.558Z,20.93
2018-11-26T20:03:09.060Z,21.43
2018-11-26T20:06:16.327Z,22.70
2018-11-26T20:08:46.470Z,20.50
2018-11-26T20:11:15.007Z,23.30
2018-11-26T20:13:43.517Z,21.63
2018-11-26T20:16:18.998Z,21.50
2018-11-26T20:18:47.440Z,22.97
2018-11-26T20:21:15.904Z,22.80
2018-11-26T20:23:44.752Z,23.70
2018-11-26T20:26:13.236Z,22.43
2018-11-26T20:28:41.755Z,21.93
2018-11-26T20:31:10.977Z,24.00
2018-11-26T20:33:39.514Z,22.47
2018-11-26T20:36:09.953Z,22.53
2018-11-26T20:38:38.534Z,21.70
2018-11-26T20:41:08.194Z,21.20
2018-11-26T20:43:36.662Z,21.13
2018-11-26T20:46:05.144Z,22.10
2018-11-26T20:48:33.861Z,23.17
2018-11-26T20:51:02.375Z,22.93
2018-11-26T20:53:31.199Z,20.60
2018-11-26T20:56:00.345Z,23.03
2018-11-26T20:58:29.157Z,22.03
2018-11-26T21:00:57.908Z,22.27
2018-11-26T21:03:30.415Z,21.30
2018-11-26T21:05:59.322Z,22.10
2018-11-26T21:08:27.831Z,21.57
2018-11-26T21:10:56.341Z,21.33
2018-11-26T21:13:24.903Z,21.80
2018-11-26T21:15:53.360Z,22.00
2018-11-26T21:18:21.886Z,20.67
2018-11-26T21:20:51.206Z,22.03
2018-11-26T21:23:24.249Z,22.10
2018-11-26T21:25:53.087Z,21.60
2018-11-26T21:28:21.733Z,20.17
2018-11-26T21:30:52.278Z,21.63
2018-11-26T21:33:18.680Z,20.87
2018-11-26T21:35:47.226Z,21.37
2018-11-26T21:38:15.671Z,20.83
2018-11-26T21:40:44.274Z,22.10
2018-11-26T21:43:12.859Z,20.10
2018-11-26T21:45:59.812Z,21.20
2018-11-26T21:48:28.299Z,21.90
2018-11-26T21:50:56.741Z,21.73
2018-11-26T21:53:25.214Z,22.43
2018-11-26T21:55:53.686Z,20.67
2018-11-26T21:58:22.154Z,20.33
2018-11-26T22:00:52.106Z,21.07
2018-11-26T22:03:20.577Z,21.33
2018-11-26T22:05:49.059Z,20.07
2018-11-26T22:08:17.540Z,20.40
2018-11-26T22:10:46.023Z,21.07
2018-11-26T22:13:17.293Z,21.13
2018-11-26T22:15:45.747Z,20.70
2018-11-26T22:18:14.215Z,21.57
2018-11-26T22:20:42.674Z,22.77
2018-11-26T22:23:11.127Z,22.13
2018-11-26T22:25:39.591Z,22.17
2018-11-26T22:28:09.626Z,21.27
2018-11-26T22:30:38.660Z,22.00
2018-11-26T22:33:07.145Z,22.63
2018-11-26T22:35:35.600Z,20.77
2018-11-26T22:38:04.043Z,22.23
2018-11-26T22:40:32.536Z,21.50
2018-11-26T22:43:01.137Z,22.27
2018-11-26T22:45:31.012Z,21.37
2018-11-26T22:48:12.299Z,20.70
2018-11-26T22:50:42.956Z,21.27
2018-11-26T22:53:11.580Z,20.73
2018-11-26T22:55:40.052Z,19.87
2018-11-26T22:58:13.352Z,21.03
2018-11-26T23:00:50.642Z,21.87
2018-11-26T23:03:20.489Z,20.80
2018-11-26T23:05:48.936Z,19.97
2018-11-26T23:08:17.444Z,19.60
2018-11-26T23:10:46.025Z,19.80
2018-11-26T23:13:14.459Z,19.37
2018-11-26T23:15:42.935Z,18.53
2018-11-26T23:18:11.404Z,18.63
2018-11-26T23:20:39.865Z,18.93
2018-11-26T23:23:08.299Z,18.67
2018-11-26T23:25:36.845Z,18.70
2018-11-26T23:28:05.552Z,18.77
2018-11-26T23:30:34.016Z,18.97
2018-11-26T23:33:03.703Z,18.77
2018-11-26T23:35:32.155Z,18.17
2018-11-26T23:38:00.600Z,18.30
2018-11-26T23:40:29.095Z,17.80
2018-11-26T23:42:57.549Z,17.33
2018-11-26T23:45:26.942Z,17.27
2018-11-26T23:47:55.393Z,16.40
2018-11-26T23:50:23.845Z,17.13
2018-11-26T23:52:57.464Z,17.67
2018-11-26T23:55:26.000Z,18.87
2018-11-26T23:57:54.809Z,18.67
